sensor_id;sensor_type;location;lat;lon;timestamp;P1;durP1;ratioP1;P2;durP2;ratioP2
16385;SDS011;8302;51.154;4.456;2023-03-01T00:02:15;1.98;;;1.52;;
16385;SDS011;8302;51.154;4.456;2023-03-01T00:04:43;2.10;;;1.42;;
16385;SDS011;8302;51.154;4.456;2023-03-01T00:07:10;1.40;;;1.10;;
16385;SDS011;8302;51.154;4.456;2023-03-01T00:09:38;1.75;;;1.02;;
16385;SDS011;8302;51.154;4.456;2023-03-01T00:12:06;1.55;;;1.30;;
16385;SDS011;8302;51.154;4.456;2023-03-01T00:14:34;1.40;;;1.15;;
16385;SDS011;8302;51.154;4.456;2023-03-01T00:17:02;3.72;;;1.23;;
16385;SDS011;8302;51.154;4.456;2023-03-01T00:19:31;1.08;;;0.90;;
16385;SDS011;8302;51.154;4.456;2023-03-01T00:21:59;1.42;;;1.02;;
16385;SDS011;8302;51.154;4.456;2023-03-01T00:24:27;1.42;;;1.02;;
16385;SDS011;8302;51.154;4.456;2023-03-01T00:26:55;1.88;;;1.48;;
16385;SDS011;8302;51.154;4.456;2023-03-01T00:29:23;3.67;;;1.52;;
16385;SDS011;8302;51.154;4.456;2023-03-01T00:31:51;1.45;;;1.17;;
16385;SDS011;8302;51.154;4.456;2023-03-01T00:34:18;1.55;;;1.40;;
16385;SDS011;8302;51.154;4.456;2023-03-01T00:36:47;1.50;;;1.25;;
16385;SDS011;8302;51.154;4.456;2023-03-01T00:39:15;1.45;;;1.33;;
16385;SDS011;8302;51.154;4.456;2023-03-01T00:41:43;2.10;;;1.40;;
16385;SDS011;8302;51.154;4.456;2023-03-01T00:44:10;2.47;;;1.50;;
16385;SDS011;8302;51.154;4.456;2023-03-01T00:46:38;1.67;;;1.50;;
16385;SDS011;8302;51.154;4.456;2023-03-01T00:49:06;2.67;;;1.60;;
16385;SDS011;8302;51.154;4.456;2023-03-01T00:51:34;1.60;;;1.15;;
16385;SDS011;8302;51.154;4.456;2023-03-01T00:54:03;1.23;;;1.13;;
16385;SDS011;8302;51.154;4.456;2023-03-01T00:56:30;2.28;;;1.52;;
16385;SDS011;8302;51.154;4.456;2023-03-01T00:58:58;1.85;;;1.35;;
16385;SDS011;8302;51.154;4.456;2023-03-01T01:01:27;2.33;;;1.58;;
16385;SDS011;8302;51.154;4.456;2023-03-01T01:03:57;2.15;;;1.40;;
16385;SDS011;8302;51.154;4.456;2023-03-01T01:06:25;2.22;;;1.10;;
16385;SDS011;8302;51.154;4.456;2023-03-01T01:08:54;1.92;;;1.35;;
16385;SDS011;8302;51.154;4.456;2023-03-01T01:11:24;3.75;;;1.48;;
16385;SDS011;8302;51.154;4.456;2023-03-01T01:13:52;1.75;;;1.48;;
16385;SDS011;8302;51.154;4.456;2023-03-01T01:16:20;1.38;;;1.20;;
16385;SDS011;8302;51.154;4.456;2023-03-01T01:18:48;2.10;;;1.55;;
16385;SDS011;8302;51.154;4.456;2023-03-01T01:21:18;2.05;;;1.35;;
16385;SDS011;8302;51.154;4.456;2023-03-01T01:23:46;1.73;;;1.50;;
16385;SDS011;8302;51.154;4.456;2023-03-01T01:26:14;2.15;;;1.35;;
16385;SDS011;8302;51.154;4.456;2023-03-01T01:28:43;3.00;;;1.80;;
16385;SDS011;8302;51.154;4.456;2023-03-01T01:31:11;3.65;;;1.48;;
16385;SDS011;8302;51.154;4.456;2023-03-01T01:33:38;1.10;;;1.00;;
16385;SDS011;8302;51.154;4.456;2023-03-01T01:36:06;2.15;;;1.50;;
16385;SDS011;8302;51.154;4.456;2023-03-01T01:38:35;1.88;;;1.70;;
16385;SDS011;8302;51.154;4.456;2023-03-01T01:41:03;1.27;;;1.17;;
16385;SDS011;8302;51.154;4.456;2023-03-01T01:43:34;2.72;;;1.10;;
16385;SDS011;8302;51.154;4.456;2023-03-01T01:46:03;1.83;;;1.27;;
16385;SDS011;8302;51.154;4.456;2023-03-01T01:48:32;1.63;;;1.35;;
16385;SDS011;8302;51.154;4.456;2023-03-01T01:51:07;1.33;;;1.23;;
16385;SDS011;8302;51.154;4.456;2023-03-01T01:53:36;2.50;;;1.13;;
16385;SDS011;8302;51.154;4.456;2023-03-01T01:56:05;2.47;;;1.80;;
16385;SDS011;8302;51.154;4.456;2023-03-01T01:58:33;5.72;;;1.88;;
16385;SDS011;8302;51.154;4.456;2023-03-01T02:01:02;2.83;;;1.63;;
16385;SDS011;8302;51.154;4.456;2023-03-01T02:03:31;3.13;;;1.23;;
16385;SDS011;8302;51.154;4.456;2023-03-01T02:06:04;2.08;;;1.73;;
16385;SDS011;8302;51.154;4.456;2023-03-01T02:08:33;2.28;;;1.40;;
16385;SDS011;8302;51.154;4.456;2023-03-01T02:11:03;3.05;;;1.27;;
16385;SDS011;8302;51.154;4.456;2023-03-01T02:13:30;1.35;;;1.20;;
16385;SDS011;8302;51.154;4.456;2023-03-01T02:15:59;1.92;;;1.63;;
16385;SDS011;8302;51.154;4.456;2023-03-01T02:18:28;1.60;;;1.35;;
16385;SDS011;8302;51.154;4.456;2023-03-01T02:20:58;2.30;;;1.27;;
16385;SDS011;8302;51.154;4.456;2023-03-01T02:23:28;2.05;;;1.30;;
16385;SDS011;8302;51.154;4.456;2023-03-01T02:25:58;2.42;;;1.42;;
16385;SDS011;8302;51.154;4.456;2023-03-01T02:28:32;2.47;;;1.55;;
16385;SDS011;8302;51.154;4.456;2023-03-01T02:31:00;2.65;;;1.52;;
16385;SDS011;8302;51.154;4.456;2023-03-01T02:33:46;1.80;;;1.23;;
16385;SDS011;8302;51.154;4.456;2023-03-01T02:36:15;2.17;;;1.52;;
16385;SDS011;8302;51.154;4.456;2023-03-01T02:38:43;1.48;;;1.23;;
16385;SDS011;8302;51.154;4.456;2023-03-01T02:41:12;1.55;;;1.00;;
16385;SDS011;8302;51.154;4.456;2023-03-01T02:43:42;2.80;;;1.40;;
16385;SDS011;8302;51.154;4.456;2023-03-01T02:46:13;3.40;;;1.75;;
16385;SDS011;8302;51.154;4.456;2023-03-01T02:48:42;2.92;;;1.48;;
16385;SDS011;8302;51.154;4.456;2023-03-01T02:51:12;3.33;;;1.55;;
16385;SDS011;8302;51.154;4.456;2023-03-01T02:53:47;1.45;;;1.35;;
16385;SDS011;8302;51.154;4.456;2023-03-01T02:56:16;1.35;;;1.25;;
16385;SDS011;8302;51.154;4.456;2023-03-01T02:58:45;2.20;;;1.67;;
16385;SDS011;8302;51.154;4.456;2023-03-01T03:01:18;2.17;;;1.52;;
16385;SDS011;8302;51.154;4.456;2023-03-01T03:03:46;1.15;;;1.05;;
16385;SDS011;8302;51.154;4.456;2023-03-01T03:06:14;2.00;;;1.55;;
16385;SDS011;8302;51.154;4.456;2023-03-01T03:08:42;2.75;;;1.38;;
16385;SDS011;8302;51.154;4.456;2023-03-01T03:11:10;2.05;;;1.60;;
16385;SDS011;8302;51.154;4.456;2023-03-01T03:13:38;1.90;;;1.40;;
16385;SDS011;8302;51.154;4.456;2023-03-01T03:16:16;1.70;;;1.42;;
16385;SDS011;8302;51.154;4.456;2023-03-01T03:18:44;1.55;;;1.30;;
16385;SDS011;8302;51.154;4.456;2023-03-01T03:21:11;1.75;;;1.20;;
16385;SDS011;8302;51.154;4.456;2023-03-01T03:23:39;2.70;;;1.30;;
16385;SDS011;8302;51.154;4.456;2023-03-01T03:26:07;2.05;;;1.45;;
16385;SDS011;8302;51.154;4.456;2023-03-01T03:28:35;3.00;;;1.30;;
16385;SDS011;8302;51.154;4.456;2023-03-01T03:31:06;1.80;;;1.30;;
16385;SDS011;8302;51.154;4.456;2023-03-01T03:33:35;1.65;;;1.40;;
16385;SDS011;8302;51.154;4.456;2023-03-01T03:36:03;4.05;;;1.58;;
16385;SDS011;8302;51.154;4.456;2023-03-01T03:38:31;1.52;;;1.10;;
16385;SDS011;8302;51.154;4.456;2023-03-01T03:41:00;0.93;;;0.90;;
16385;SDS011;8302;51.154;4.456;2023-03-01T03:43:29;2.25;;;1.52;;
16385;SDS011;8302;51.154;4.456;2023-03-01T03:45:57;1.25;;;1.10;;
16385;SDS011;8302;51.154;4.456;2023-03-01T03:48:25;1.13;;;1.02;;
16385;SDS011;8302;51.154;4.456;2023-03-01T03:50:54;1.23;;;1.08;;
16385;SDS011;8302;51.154;4.456;2023-03-01T03:53:23;3.15;;;1.60;;
16385;SDS011;8302;51.154;4.456;2023-03-01T03:55:51;1.90;;;1.05;;
16385;SDS011;8302;51.154;4.456;2023-03-01T03:58:19;2.42;;;1.65;;
16385;SDS011;8302;51.154;4.456;2023-03-01T04:00:48;1.52;;;1.20;;
16385;SDS011;8302;51.154;4.456;2023-03-01T04:03:16;2.53;;;1.60;;
16385;SDS011;8302;51.154;4.456;2023-03-01T04:05:45;1.35;;;1.25;;
16385;SDS011;8302;51.154;4.456;2023-03-01T04:08:14;1.63;;;1.42;;
16385;SDS011;8302;51.154;4.456;2023-03-01T04:10:44;2.45;;;1.23;;
16385;SDS011;8302;51.154;4.456;2023-03-01T04:13:14;1.58;;;1.17;;
16385;SDS011;8302;51.154;4.456;2023-03-01T04:15:42;1.75;;;1.20;;
16385;SDS011;8302;51.154;4.456;2023-03-01T04:18:10;1.42;;;1.08;;
16385;SDS011;8302;51.154;4.456;2023-03-01T04:20:39;2.67;;;1.48;;
16385;SDS011;8302;51.154;4.456;2023-03-01T04:23:07;2.03;;;1.20;;
16385;SDS011;8302;51.154;4.456;2023-03-01T04:25:41;3.42;;;1.55;;
16385;SDS011;8302;51.154;4.456;2023-03-01T04:28:09;2.58;;;1.40;;
16385;SDS011;8302;51.154;4.456;2023-03-01T04:30:37;1.55;;;1.40;;
16385;SDS011;8302;51.154;4.456;2023-03-01T04:33:06;2.13;;;1.17;;
16385;SDS011;8302;51.154;4.456;2023-03-01T04:35:34;1.42;;;1.27;;
16385;SDS011;8302;51.154;4.456;2023-03-01T04:38:02;2.53;;;1.52;;
16385;SDS011;8302;51.154;4.456;2023-03-01T04:40:30;1.27;;;1.15;;
16385;SDS011;8302;51.154;4.456;2023-03-01T04:42:59;2.03;;;1.38;;
16385;SDS011;8302;51.154;4.456;2023-03-01T04:45:26;2.67;;;1.58;;
16385;SDS011;8302;51.154;4.456;2023-03-01T04:47:54;2.00;;;1.30;;
16385;SDS011;8302;51.154;4.456;2023-03-01T04:50:24;1.60;;;1.27;;
16385;SDS011;8302;51.154;4.456;2023-03-01T04:52:52;2.10;;;1.23;;
16385;SDS011;8302;51.154;4.456;2023-03-01T04:55:19;1.83;;;1.45;;
16385;SDS011;8302;51.154;4.456;2023-03-01T04:57:47;1.15;;;1.05;;
16385;SDS011;8302;51.154;4.456;2023-03-01T05:00:16;1.85;;;1.63;;
16385;SDS011;8302;51.154;4.456;2023-03-01T05:02:50;4.57;;;1.52;;
16385;SDS011;8302;51.154;4.456;2023-03-01T05:05:21;1.58;;;1.30;;
16385;SDS011;8302;51.154;4.456;2023-03-01T05:07:52;1.20;;;1.10;;
16385;SDS011;8302;51.154;4.456;2023-03-01T05:10:20;1.75;;;1.58;;
16385;SDS011;8302;51.154;4.456;2023-03-01T05:12:48;1.95;;;1.00;;
16385;SDS011;8302;51.154;4.456;2023-03-01T05:15:17;2.38;;;1.20;;
16385;SDS011;8302;51.154;4.456;2023-03-01T05:17:44;1.27;;;1.13;;
16385;SDS011;8302;51.154;4.456;2023-03-01T05:20:12;2.67;;;1.55;;
16385;SDS011;8302;51.154;4.456;2023-03-01T05:22:40;1.50;;;1.40;;
16385;SDS011;8302;51.154;4.456;2023-03-01T05:25:08;2.95;;;1.55;;
16385;SDS011;8302;51.154;4.456;2023-03-01T05:27:35;3.47;;;1.48;;
16385;SDS011;8302;51.154;4.456;2023-03-01T05:30:03;1.73;;;1.45;;
16385;SDS011;8302;51.154;4.456;2023-03-01T05:32:42;3.50;;;1.02;;
16385;SDS011;8302;51.154;4.456;2023-03-01T05:35:11;2.42;;;1.50;;
16385;SDS011;8302;51.154;4.456;2023-03-01T05:37:40;1.55;;;1.20;;
16385;SDS011;8302;51.154;4.456;2023-03-01T05:40:09;1.20;;;1.10;;
16385;SDS011;8302;51.154;4.456;2023-03-01T05:42:44;1.40;;;1.30;;
16385;SDS011;8302;51.154;4.456;2023-03-01T05:45:13;1.63;;;1.30;;
16385;SDS011;8302;51.154;4.456;2023-03-01T05:47:43;1.50;;;1.25;;
16385;SDS011;8302;51.154;4.456;2023-03-01T05:50:11;1.58;;;1.38;;
16385;SDS011;8302;51.154;4.456;2023-03-01T05:52:39;2.08;;;1.60;;
16385;SDS011;8302;51.154;4.456;2023-03-01T05:55:07;2.00;;;1.25;;
16385;SDS011;8302;51.154;4.456;2023-03-01T05:57:34;1.35;;;1.25;;
16385;SDS011;8302;51.154;4.456;2023-03-01T06:00:02;1.35;;;1.00;;
16385;SDS011;8302;51.154;4.456;2023-03-01T06:02:37;1.48;;;0.93;;
16385;SDS011;8302;51.154;4.456;2023-03-01T06:05:07;2.35;;;1.00;;
16385;SDS011;8302;51.154;4.456;2023-03-01T06:07:36;1.60;;;1.50;;
16385;SDS011;8302;51.154;4.456;2023-03-01T06:10:04;2.20;;;1.20;;
16385;SDS011;8302;51.154;4.456;2023-03-01T06:12:32;1.45;;;1.35;;
16385;SDS011;8302;51.154;4.456;2023-03-01T06:14:59;1.95;;;1.15;;
16385;SDS011;8302;51.154;4.456;2023-03-01T06:17:29;1.73;;;1.02;;
16385;SDS011;8302;51.154;4.456;2023-03-01T06:19:56;2.10;;;0.82;;
16385;SDS011;8302;51.154;4.456;2023-03-01T06:22:26;2.58;;;1.30;;
16385;SDS011;8302;51.154;4.456;2023-03-01T06:24:54;5.57;;;1.42;;
16385;SDS011;8302;51.154;4.456;2023-03-01T06:27:21;2.88;;;1.08;;
16385;SDS011;8302;51.154;4.456;2023-03-01T06:29:49;0.95;;;0.95;;
16385;SDS011;8302;51.154;4.456;2023-03-01T06:32:17;1.33;;;1.20;;
16385;SDS011;8302;51.154;4.456;2023-03-01T06:34:44;2.00;;;1.58;;
16385;SDS011;8302;51.154;4.456;2023-03-01T06:37:12;1.42;;;1.33;;
16385;SDS011;8302;51.154;4.456;2023-03-01T06:39:41;3.33;;;2.25;;
16385;SDS011;8302;51.154;4.456;2023-03-01T06:42:09;2.83;;;2.30;;
16385;SDS011;8302;51.154;4.456;2023-03-01T06:44:37;3.83;;;2.50;;
16385;SDS011;8302;51.154;4.456;2023-03-01T06:47:04;3.85;;;2.50;;
16385;SDS011;8302;51.154;4.456;2023-03-01T06:49:32;3.80;;;2.78;;
16385;SDS011;8302;51.154;4.456;2023-03-01T06:52:00;3.97;;;2.72;;
16385;SDS011;8302;51.154;4.456;2023-03-01T06:54:27;5.57;;;3.35;;
16385;SDS011;8302;51.154;4.456;2023-03-01T06:56:56;7.53;;;3.28;;
16385;SDS011;8302;51.154;4.456;2023-03-01T06:59:24;5.10;;;3.05;;
16385;SDS011;8302;51.154;4.456;2023-03-01T07:01:51;7.70;;;3.40;;
16385;SDS011;8302;51.154;4.456;2023-03-01T07:04:19;9.10;;;3.88;;
16385;SDS011;8302;51.154;4.456;2023-03-01T07:06:46;10.25;;;4.03;;
16385;SDS011;8302;51.154;4.456;2023-03-01T07:09:20;7.68;;;4.38;;
16385;SDS011;8302;51.154;4.456;2023-03-01T07:11:48;8.50;;;4.05;;
16385;SDS011;8302;51.154;4.456;2023-03-01T07:14:17;8.60;;;4.18;;
16385;SDS011;8302;51.154;4.456;2023-03-01T07:16:46;9.13;;;4.10;;
16385;SDS011;8302;51.154;4.456;2023-03-01T07:19:13;16.02;;;4.97;;
16385;SDS011;8302;51.154;4.456;2023-03-01T07:21:41;8.18;;;4.47;;
16385;SDS011;8302;51.154;4.456;2023-03-01T07:24:08;10.43;;;4.63;;
16385;SDS011;8302;51.154;4.456;2023-03-01T07:26:36;7.40;;;4.32;;
16385;SDS011;8302;51.154;4.456;2023-03-01T07:29:05;10.63;;;4.85;;
16385;SDS011;8302;51.154;4.456;2023-03-01T07:31:35;8.98;;;4.82;;
16385;SDS011;8302;51.154;4.456;2023-03-01T07:34:03;9.20;;;4.53;;
16385;SDS011;8302;51.154;4.456;2023-03-01T07:36:30;8.98;;;4.70;;
16385;SDS011;8302;51.154;4.456;2023-03-01T07:38:58;12.18;;;4.95;;
16385;SDS011;8302;51.154;4.456;2023-03-01T07:41:28;8.48;;;4.72;;
16385;SDS011;8302;51.154;4.456;2023-03-01T07:43:56;10.32;;;4.55;;
16385;SDS011;8302;51.154;4.456;2023-03-01T07:46:23;14.18;;;4.93;;
16385;SDS011;8302;51.154;4.456;2023-03-01T07:48:52;10.85;;;4.72;;
16385;SDS011;8302;51.154;4.456;2023-03-01T07:51:20;10.38;;;4.65;;
16385;SDS011;8302;51.154;4.456;2023-03-01T07:53:48;8.70;;;4.30;;
16385;SDS011;8302;51.154;4.456;2023-03-01T07:56:17;10.35;;;4.47;;
16385;SDS011;8302;51.154;4.456;2023-03-01T07:58:45;7.85;;;4.40;;
16385;SDS011;8302;51.154;4.456;2023-03-01T08:01:16;10.07;;;4.45;;
16385;SDS011;8302;51.154;4.456;2023-03-01T08:03:44;8.35;;;4.57;;
16385;SDS011;8302;51.154;4.456;2023-03-01T08:06:14;7.80;;;4.45;;
16385;SDS011;8302;51.154;4.456;2023-03-01T08:08:42;9.40;;;4.55;;
16385;SDS011;8302;51.154;4.456;2023-03-01T08:11:10;7.20;;;4.07;;
16385;SDS011;8302;51.154;4.456;2023-03-01T08:13:38;8.82;;;4.22;;
16385;SDS011;8302;51.154;4.456;2023-03-01T08:16:07;6.03;;;3.70;;
16385;SDS011;8302;51.154;4.456;2023-03-01T08:18:35;11.77;;;4.32;;
16385;SDS011;8302;51.154;4.456;2023-03-01T08:21:03;7.97;;;3.97;;
16385;SDS011;8302;51.154;4.456;2023-03-01T08:23:32;8.65;;;4.47;;
16385;SDS011;8302;51.154;4.456;2023-03-01T08:26:04;6.45;;;3.78;;
16385;SDS011;8302;51.154;4.456;2023-03-01T08:28:32;8.13;;;4.45;;
16385;SDS011;8302;51.154;4.456;2023-03-01T08:30:59;6.60;;;3.70;;
16385;SDS011;8302;51.154;4.456;2023-03-01T08:33:27;5.88;;;3.55;;
16385;SDS011;8302;51.154;4.456;2023-03-01T08:36:01;6.47;;;3.92;;
16385;SDS011;8302;51.154;4.456;2023-03-01T08:38:29;10.07;;;3.60;;
16385;SDS011;8302;51.154;4.456;2023-03-01T08:41:00;4.15;;;2.25;;
16385;SDS011;8302;51.154;4.456;2023-03-01T08:43:28;6.85;;;2.03;;
16385;SDS011;8302;51.154;4.456;2023-03-01T08:45:56;5.05;;;2.10;;
16385;SDS011;8302;51.154;4.456;2023-03-01T08:48:24;4.70;;;2.30;;
16385;SDS011;8302;51.154;4.456;2023-03-01T08:50:51;4.57;;;2.40;;
16385;SDS011;8302;51.154;4.456;2023-03-01T08:53:19;2.65;;;1.17;;
16385;SDS011;8302;51.154;4.456;2023-03-01T08:55:46;3.92;;;2.00;;
16385;SDS011;8302;51.154;4.456;2023-03-01T08:58:17;4.22;;;2.10;;
16385;SDS011;8302;51.154;4.456;2023-03-01T09:00:45;3.20;;;1.83;;
16385;SDS011;8302;51.154;4.456;2023-03-01T09:03:12;1.60;;;1.30;;
16385;SDS011;8302;51.154;4.456;2023-03-01T09:05:40;2.40;;;1.67;;
16385;SDS011;8302;51.154;4.456;2023-03-01T09:08:07;2.53;;;1.83;;
16385;SDS011;8302;51.154;4.456;2023-03-01T09:10:37;2.67;;;1.63;;
16385;SDS011;8302;51.154;4.456;2023-03-01T09:13:04;3.28;;;1.58;;
16385;SDS011;8302;51.154;4.456;2023-03-01T09:15:33;3.97;;;1.77;;
16385;SDS011;8302;51.154;4.456;2023-03-01T09:18:01;3.17;;;2.00;;
16385;SDS011;8302;51.154;4.456;2023-03-01T09:20:29;2.45;;;1.63;;
16385;SDS011;8302;51.154;4.456;2023-03-01T09:22:57;5.30;;;2.25;;
16385;SDS011;8302;51.154;4.456;2023-03-01T09:25:25;3.53;;;1.70;;
16385;SDS011;8302;51.154;4.456;2023-03-01T09:27:52;2.10;;;1.85;;
16385;SDS011;8302;51.154;4.456;2023-03-01T09:30:20;2.42;;;1.48;;
16385;SDS011;8302;51.154;4.456;2023-03-01T09:32:50;2.20;;;1.58;;
16385;SDS011;8302;51.154;4.456;2023-03-01T09:35:17;3.92;;;2.03;;
16385;SDS011;8302;51.154;4.456;2023-03-01T09:37:46;1.80;;;1.65;;
16385;SDS011;8302;51.154;4.456;2023-03-01T09:40:17;3.40;;;2.08;;
16385;SDS011;8302;51.154;4.456;2023-03-01T09:42:46;1.95;;;1.33;;
16385;SDS011;8302;51.154;4.456;2023-03-01T09:45:18;2.78;;;1.30;;
16385;SDS011;8302;51.154;4.456;2023-03-01T09:47:49;2.55;;;1.33;;
16385;SDS011;8302;51.154;4.456;2023-03-01T09:50:18;3.53;;;1.75;;
16385;SDS011;8302;51.154;4.456;2023-03-01T09:52:47;1.85;;;1.25;;
16385;SDS011;8302;51.154;4.456;2023-03-01T09:55:16;3.83;;;1.77;;
16385;SDS011;8302;51.154;4.456;2023-03-01T09:57:47;1.73;;;1.38;;
16385;SDS011;8302;51.154;4.456;2023-03-01T10:00:18;1.98;;;1.60;;
16385;SDS011;8302;51.154;4.456;2023-03-01T10:02:48;2.00;;;1.50;;
16385;SDS011;8302;51.154;4.456;2023-03-01T10:05:22;2.28;;;1.50;;
16385;SDS011;8302;51.154;4.456;2023-03-01T10:07:54;3.72;;;2.28;;
16385;SDS011;8302;51.154;4.456;2023-03-01T10:10:26;2.10;;;1.63;;
16385;SDS011;8302;51.154;4.456;2023-03-01T10:12:55;2.35;;;1.58;;
16385;SDS011;8302;51.154;4.456;2023-03-01T10:15:25;3.05;;;1.67;;
16385;SDS011;8302;51.154;4.456;2023-03-01T10:17:56;2.92;;;1.88;;
16385;SDS011;8302;51.154;4.456;2023-03-01T10:20:28;0.68;;;0.68;;
16385;SDS011;8302;51.154;4.456;2023-03-01T10:22:57;2.10;;;1.35;;
16385;SDS011;8302;51.154;4.456;2023-03-01T10:25:30;1.73;;;1.08;;
16385;SDS011;8302;51.154;4.456;2023-03-01T10:28:05;2.17;;;1.08;;
16385;SDS011;8302;51.154;4.456;2023-03-01T10:30:38;3.10;;;1.42;;
16385;SDS011;8302;51.154;4.456;2023-03-01T10:33:09;1.60;;;1.17;;
16385;SDS011;8302;51.154;4.456;2023-03-01T10:35:42;3.92;;;1.88;;
16385;SDS011;8302;51.154;4.456;2023-03-01T10:38:11;2.25;;;1.30;;
16385;SDS011;8302;51.154;4.456;2023-03-01T10:40:49;6.57;;;1.85;;
16385;SDS011;8302;51.154;4.456;2023-03-01T10:43:17;1.55;;;1.30;;
16385;SDS011;8302;51.154;4.456;2023-03-01T10:45:45;2.10;;;1.10;;
16385;SDS011;8302;51.154;4.456;2023-03-01T10:48:14;3.83;;;1.55;;
16385;SDS011;8302;51.154;4.456;2023-03-01T10:50:44;1.90;;;1.40;;
16385;SDS011;8302;51.154;4.456;2023-03-01T10:53:20;0.95;;;0.93;;
16385;SDS011;8302;51.154;4.456;2023-03-01T10:55:56;1.17;;;1.08;;
16385;SDS011;8302;51.154;4.456;2023-03-01T10:58:24;1.65;;;1.27;;
16385;SDS011;8302;51.154;4.456;2023-03-01T11:00:53;2.65;;;1.20;;
16385;SDS011;8302;51.154;4.456;2023-03-01T11:03:22;1.45;;;1.05;;
16385;SDS011;8302;51.154;4.456;2023-03-01T11:05:56;2.05;;;1.40;;
16385;SDS011;8302;51.154;4.456;2023-03-01T11:08:35;1.85;;;1.10;;
16385;SDS011;8302;51.154;4.456;2023-03-01T11:11:07;1.95;;;1.65;;
16385;SDS011;8302;51.154;4.456;2023-03-01T11:13:46;1.88;;;1.10;;
16385;SDS011;8302;51.154;4.456;2023-03-01T11:16:15;1.83;;;1.40;;
16385;SDS011;8302;51.154;4.456;2023-03-01T11:18:55;2.33;;;1.58;;
16385;SDS011;8302;51.154;4.456;2023-03-01T11:21:24;2.00;;;1.17;;
16385;SDS011;8302;51.154;4.456;2023-03-01T11:23:54;2.97;;;1.30;;
16385;SDS011;8302;51.154;4.456;2023-03-01T11:26:21;2.53;;;1.35;;
16385;SDS011;8302;51.154;4.456;2023-03-01T11:28:50;1.15;;;1.05;;
16385;SDS011;8302;51.154;4.456;2023-03-01T11:31:21;2.13;;;1.10;;
16385;SDS011;8302;51.154;4.456;2023-03-01T11:33:52;2.47;;;1.30;;
16385;SDS011;8302;51.154;4.456;2023-03-01T11:36:24;1.20;;;1.10;;
16385;SDS011;8302;51.154;4.456;2023-03-01T11:38:55;1.83;;;1.15;;
16385;SDS011;8302;51.154;4.456;2023-03-01T11:41:23;1.50;;;1.25;;
16385;SDS011;8302;51.154;4.456;2023-03-01T11:43:53;1.52;;;1.23;;
16385;SDS011;8302;51.154;4.456;2023-03-01T11:46:32;0.95;;;0.88;;
16385;SDS011;8302;51.154;4.456;2023-03-01T11:49:07;4.47;;;1.50;;
16385;SDS011;8302;51.154;4.456;2023-03-01T11:51:41;1.27;;;0.90;;
16385;SDS011;8302;51.154;4.456;2023-03-01T11:54:13;0.70;;;0.63;;
16385;SDS011;8302;51.154;4.456;2023-03-01T11:56:45;1.88;;;0.82;;
16385;SDS011;8302;51.154;4.456;2023-03-01T11:59:25;4.15;;;1.60;;
16385;SDS011;8302;51.154;4.456;2023-03-01T12:04:49;0.98;;;0.80;;
16385;SDS011;8302;51.154;4.456;2023-03-01T12:07:19;1.83;;;0.93;;
16385;SDS011;8302;51.154;4.456;2023-03-01T12:09:53;1.38;;;0.85;;
16385;SDS011;8302;51.154;4.456;2023-03-01T12:12:32;0.98;;;0.82;;
16385;SDS011;8302;51.154;4.456;2023-03-01T12:17:51;1.38;;;1.08;;
16385;SDS011;8302;51.154;4.456;2023-03-01T12:20:25;1.02;;;0.85;;
16385;SDS011;8302;51.154;4.456;2023-03-01T12:22:59;1.05;;;0.95;;
16385;SDS011;8302;51.154;4.456;2023-03-01T12:25:48;2.22;;;0.88;;
16385;SDS011;8302;51.154;4.456;2023-03-01T12:28:22;1.83;;;1.00;;
16385;SDS011;8302;51.154;4.456;2023-03-01T12:31:00;2.83;;;0.98;;
16385;SDS011;8302;51.154;4.456;2023-03-01T12:33:34;3.80;;;0.70;;
16385;SDS011;8302;51.154;4.456;2023-03-01T12:38:55;1.42;;;1.20;;
16385;SDS011;8302;51.154;4.456;2023-03-01T12:41:31;2.83;;;1.02;;
16385;SDS011;8302;51.154;4.456;2023-03-01T12:44:02;1.50;;;1.30;;
16385;SDS011;8302;51.154;4.456;2023-03-01T12:46:36;2.78;;;1.30;;
16385;SDS011;8302;51.154;4.456;2023-03-01T12:49:09;2.20;;;1.30;;
16385;SDS011;8302;51.154;4.456;2023-03-01T12:51:39;0.70;;;0.70;;
16385;SDS011;8302;51.154;4.456;2023-03-01T12:54:11;2.72;;;1.15;;
16385;SDS011;8302;51.154;4.456;2023-03-01T12:56:44;2.00;;;1.23;;
16385;SDS011;8302;51.154;4.456;2023-03-01T12:59:19;6.22;;;4.38;;
16385;SDS011;8302;51.154;4.456;2023-03-01T13:01:52;1.63;;;0.90;;
16385;SDS011;8302;51.154;4.456;2023-03-01T13:04:24;1.38;;;1.02;;
16385;SDS011;8302;51.154;4.456;2023-03-01T13:06:55;1.95;;;1.75;;
16385;SDS011;8302;51.154;4.456;2023-03-01T13:09:29;2.13;;;0.80;;
16385;SDS011;8302;51.154;4.456;2023-03-01T13:12:00;0.50;;;0.50;;
16385;SDS011;8302;51.154;4.456;2023-03-01T13:14:36;2.10;;;0.98;;
16385;SDS011;8302;51.154;4.456;2023-03-01T13:17:20;1.70;;;0.80;;
16385;SDS011;8302;51.154;4.456;2023-03-01T13:19:58;1.02;;;0.80;;
16385;SDS011;8302;51.154;4.456;2023-03-01T13:22:27;1.58;;;0.70;;
16385;SDS011;8302;51.154;4.456;2023-03-01T13:25:02;2.38;;;0.93;;
16385;SDS011;8302;51.154;4.456;2023-03-01T13:27:32;1.30;;;0.95;;
16385;SDS011;8302;51.154;4.456;2023-03-01T13:29:59;1.55;;;0.88;;
16385;SDS011;8302;51.154;4.456;2023-03-01T13:32:32;1.23;;;0.93;;
16385;SDS011;8302;51.154;4.456;2023-03-01T13:37:57;1.05;;;0.95;;
16385;SDS011;8302;51.154;4.456;2023-03-01T13:40:58;3.08;;;1.25;;
16385;SDS011;8302;51.154;4.456;2023-03-01T13:43:28;1.83;;;1.10;;
16385;SDS011;8302;51.154;4.456;2023-03-01T13:45:56;3.35;;;1.05;;
16385;SDS011;8302;51.154;4.456;2023-03-01T13:48:25;1.33;;;0.65;;
16385;SDS011;8302;51.154;4.456;2023-03-01T13:50:54;0.88;;;0.88;;
16385;SDS011;8302;51.154;4.456;2023-03-01T13:53:23;2.40;;;1.15;;
16385;SDS011;8302;51.154;4.456;2023-03-01T13:55:52;1.45;;;1.00;;
16385;SDS011;8302;51.154;4.456;2023-03-01T13:58:27;1.75;;;1.38;;
16385;SDS011;8302;51.154;4.456;2023-03-01T14:00:55;2.58;;;1.35;;
16385;SDS011;8302;51.154;4.456;2023-03-01T14:03:23;0.93;;;0.65;;
16385;SDS011;8302;51.154;4.456;2023-03-01T14:05:58;1.73;;;0.95;;
16385;SDS011;8302;51.154;4.456;2023-03-01T14:08:38;0.40;;;0.40;;
16385;SDS011;8302;51.154;4.456;2023-03-01T14:16:53;1.00;;;0.82;;
16385;SDS011;8302;51.154;4.456;2023-03-01T14:19:23;2.72;;;1.48;;
16385;SDS011;8302;51.154;4.456;2023-03-01T14:22:02;0.52;;;0.52;;
16385;SDS011;8302;51.154;4.456;2023-03-01T14:24:31;0.82;;;0.82;;
16385;SDS011;8302;51.154;4.456;2023-03-01T14:27:01;1.25;;;0.77;;
16385;SDS011;8302;51.154;4.456;2023-03-01T14:29:33;2.47;;;1.15;;
16385;SDS011;8302;51.154;4.456;2023-03-01T14:32:15;1.40;;;0.90;;
16385;SDS011;8302;51.154;4.456;2023-03-01T14:34:45;1.90;;;0.98;;
16385;SDS011;8302;51.154;4.456;2023-03-01T14:37:18;1.15;;;0.90;;
16385;SDS011;8302;51.154;4.456;2023-03-01T14:39:46;0.88;;;0.60;;
16385;SDS011;8302;51.154;4.456;2023-03-01T14:42:14;1.13;;;0.90;;
16385;SDS011;8302;51.154;4.456;2023-03-01T14:44:42;1.13;;;1.00;;
16385;SDS011;8302;51.154;4.456;2023-03-01T14:47:13;2.55;;;0.80;;
16385;SDS011;8302;51.154;4.456;2023-03-01T14:49:42;1.40;;;1.08;;
16385;SDS011;8302;51.154;4.456;2023-03-01T14:52:17;1.30;;;1.17;;
16385;SDS011;8302;51.154;4.456;2023-03-01T14:54:46;2.03;;;1.20;;
16385;SDS011;8302;51.154;4.456;2023-03-01T14:57:15;1.25;;;1.15;;
16385;SDS011;8302;51.154;4.456;2023-03-01T14:59:43;2.22;;;0.98;;
16385;SDS011;8302;51.154;4.456;2023-03-01T15:02:13;0.90;;;0.70;;
16385;SDS011;8302;51.154;4.456;2023-03-01T15:04:43;2.03;;;1.15;;
16385;SDS011;8302;51.154;4.456;2023-03-01T15:07:12;0.95;;;0.95;;
16385;SDS011;8302;51.154;4.456;2023-03-01T15:09:40;5.90;;;2.85;;
16385;SDS011;8302;51.154;4.456;2023-03-01T15:15:19;1.65;;;1.02;;
16385;SDS011;8302;51.154;4.456;2023-03-01T15:17:50;1.45;;;1.15;;
16385;SDS011;8302;51.154;4.456;2023-03-01T15:20:19;0.50;;;0.47;;
16385;SDS011;8302;51.154;4.456;2023-03-01T15:22:47;1.25;;;1.05;;
16385;SDS011;8302;51.154;4.456;2023-03-01T15:25:15;0.93;;;0.93;;
16385;SDS011;8302;51.154;4.456;2023-03-01T15:27:45;1.25;;;0.70;;
16385;SDS011;8302;51.154;4.456;2023-03-01T15:30:13;0.88;;;0.68;;
16385;SDS011;8302;51.154;4.456;2023-03-01T15:32:44;0.85;;;0.77;;
16385;SDS011;8302;51.154;4.456;2023-03-01T15:38:22;0.85;;;0.80;;
16385;SDS011;8302;51.154;4.456;2023-03-01T15:40:51;1.10;;;0.88;;